Time;durP1;ratioP1;P1;durP2;ratioP2;P2;SDS_P1;SDS_P2;PMS_P1;PMS_P2;Temp;Humidity;BMP_temperature;BMP_pressure;BME280_temperature;BME280_humidity;BME280_pressure;Samples;Min_cycle;Max_cycle;Signal;HPM_P1;HPM_P2
2022/06/16 00:00:19;;;;;;;3.90;3.70;;;;;;;20.50;100.00;99850.09;5050138;28;20218;-64
2022/06/16 00:02:50;;;;;;;4.13;3.93;;;;;;;20.48;100.00;99846.78;5053464;28;20211;-64
2022/06/16 00:05:20;;;;;;;4.67;3.97;;;;;;;20.50;100.00;99844.88;5053284;28;20201;-64
2022/06/16 00:07:47;;;;;;;4.33;4.10;;;;;;;20.56;100.00;99849.72;5054782;28;20223;-64
2022/06/16 00:10:15;;;;;;;4.53;4.03;;;;;;;20.57;100.00;99846.19;5043769;28;20219;-64
2022/06/16 00:12:42;;;;;;;4.00;3.80;;;;;;;20.57;100.00;99840.97;5054634;28;20192;-64
2022/06/16 00:15:13;;;;;;;3.93;3.77;;;;;;;20.57;100.00;99843.56;5040611;28;20192;-64
2022/06/16 00:17:40;;;;;;;4.43;4.03;;;;;;;20.55;100.00;99836.78;5054209;28;20199;-64
2022/06/16 00:20:09;;;;;;;3.50;3.30;;;;;;;20.55;100.00;99842.81;5051718;28;20208;-64
2022/06/16 00:22:36;;;;;;;4.63;4.30;;;;;;;20.52;100.00;99845.63;5054199;28;20205;-65
2022/06/16 00:25:04;;;;;;;4.40;4.00;;;;;;;20.51;100.00;99841.38;5054303;28;20704;-65
2022/06/16 00:27:31;;;;;;;4.03;3.87;;;;;;;20.50;100.00;99844.88;5053994;28;20208;-64
2022/06/16 00:29:59;;;;;;;4.27;3.87;;;;;;;20.55;100.00;99844.63;5054164;28;20215;-65
2022/06/16 00:32:28;;;;;;;4.30;4.10;;;;;;;20.55;100.00;99832.41;5047973;28;20203;-65
2022/06/16 00:34:54;;;;;;;5.53;4.07;;;;;;;20.43;100.00;99833.19;5039791;28;20678;-64
2022/06/16 00:37:21;;;;;;;4.47;4.17;;;;;;;20.37;100.00;99833.56;5047074;28;20714;-64
2022/06/16 00:39:48;;;;;;;4.50;4.20;;;;;;;20.27;100.00;99828.13;5053700;28;20199;-64
2022/06/16 00:42:17;;;;;;;4.93;4.57;;;;;;;20.25;100.00;99831.72;5054015;28;20208;-65
2022/06/16 00:44:46;;;;;;;4.27;4.00;;;;;;;20.27;100.00;99832.50;5053517;28;20221;-65
2022/06/16 00:47:13;;;;;;;3.87;3.67;;;;;;;20.28;100.00;99828.97;5051159;28;20230;-65
2022/06/16 00:49:45;;;;;;;4.20;4.00;;;;;;;20.30;100.00;99829.69;5053764;28;20199;-65
2022/06/16 00:52:15;;;;;;;4.43;4.20;;;;;;;20.40;100.00;99830.78;5053818;28;20698;-65
2022/06/16 00:54:47;;;;;;;5.07;4.50;;;;;;;20.37;100.00;99828.38;5053601;28;20588;-65
2022/06/16 00:57:17;;;;;;;4.10;3.90;;;;;;;20.38;100.00;99832.66;5051192;28;20591;-65
2022/06/16 00:59:45;;;;;;;4.30;4.10;;;;;;;20.33;100.00;99827.72;5052966;28;20199;-65
2022/06/16 01:02:12;;;;;;;4.03;3.83;;;;;;;20.32;100.00;99825.25;5053305;28;20281;-65
2022/06/16 01:04:53;;;;;;;4.17;3.83;;;;;;;20.31;100.00;99828.75;5052995;28;20215;-65
2022/06/16 01:07:26;;;;;;;4.83;4.20;;;;;;;20.37;100.00;99821.41;5042069;28;20566;-65
2022/06/16 01:09:55;;;;;;;4.03;3.83;;;;;;;20.43;100.00;99822.78;5049453;28;20572;-65
2022/06/16 01:15:46;;;;;;;4.03;3.73;;;;;;;20.62;100.00;99827.63;5043395;28;20211;-65
2022/06/16 01:18:20;;;;;;;4.37;4.13;;;;;;;20.59;100.00;99807.81;5051870;28;20626;-65
2022/06/16 01:20:53;;;;;;;4.03;3.70;;;;;;;20.62;100.00;99818.03;5050992;28;20196;-65
2022/06/16 01:23:53;;;;;;;5.57;4.20;;;;;;;20.52;100.00;99819.56;5053514;28;20585;-65
2022/06/16 01:26:43;;;;;;;3.87;3.67;;;;;;;20.48;100.00;99820.72;5052438;28;20676;-65
2022/06/16 01:29:17;;;;;;;3.63;3.43;;;;;;;20.57;100.00;99819.28;5050590;28;20204;-65
2022/06/16 01:31:53;;;;;;;4.70;4.50;;;;;;;20.60;100.00;99819.94;5053134;28;20218;-65
2022/06/16 01:34:27;;;;;;;4.07;3.97;;;;;;;20.62;100.00;99819.81;5039999;28;20194;-65
2022/06/16 01:37:02;;;;;;;4.07;3.87;;;;;;;20.69;100.00;99824.53;5047254;28;20227;-65
2022/06/16 01:39:37;;;;;;;4.57;4.13;;;;;;;20.69;100.00;99821.94;5053161;28;20273;-65
2022/06/16 01:42:09;;;;;;;4.57;4.07;;;;;;;20.74;100.00;99817.25;5047930;28;20200;-65
2022/06/16 01:44:43;;;;;;;4.90;4.47;;;;;;;20.79;100.00;99812.59;5050446;28;20217;-65
2022/06/16 01:47:14;;;;;;;4.37;4.00;;;;;;;20.82;100.00;99811.53;5052581;28;20207;-65
2022/06/16 01:49:47;;;;;;;4.80;4.60;;;;;;;20.83;100.00;99816.66;5048385;28;20204;-65
2022/06/16 01:52:18;;;;;;;4.47;4.17;;;;;;;20.82;100.00;99824.56;5052684;28;20214;-65
2022/06/16 01:54:50;;;;;;;4.47;4.10;;;;;;;20.80;100.00;99827.28;5041231;28;20312;-65
2022/06/16 01:57:22;;;;;;;4.27;3.93;;;;;;;20.71;100.00;99820.06;5052177;28;20209;-65
2022/06/16 01:59:57;;;;;;;4.33;4.03;;;;;;;20.71;100.00;99825.25;5049654;28;20204;-65
2022/06/16 02:02:28;;;;;;;3.83;3.63;;;;;;;20.64;100.00;99826.63;5045372;28;20197;-65
2022/06/16 02:04:59;;;;;;;4.03;3.73;;;;;;;20.61;100.00;99826.81;5038091;28;20715;-65
2022/06/16 02:07:32;;;;;;;4.47;4.17;;;;;;;20.46;100.00;99822.56;5050457;28;20213;-65
2022/06/16 02:10:02;;;;;;;3.47;3.17;;;;;;;20.49;100.00;99819.75;5041086;28;20551;-65
2022/06/16 02:15:29;;;;;;;3.87;3.60;;;;;;;20.57;100.00;99825.34;5045895;28;20278;-65
2022/06/16 02:17:58;;;;;;;4.27;3.97;;;;;;;20.58;100.00;99824.38;5045572;28;20206;-65
2022/06/16 02:20:28;;;;;;;5.07;4.27;;;;;;;20.58;100.00;99827.00;5052028;28;20204;-65
2022/06/16 02:22:56;;;;;;;4.80;4.47;;;;;;;20.63;100.00;99830.16;5046966;28;20205;-65
2022/06/16 02:25:23;;;;;;;4.83;4.47;;;;;;;20.58;100.00;99821.78;5051961;28;20228;-65
2022/06/16 02:27:50;;;;;;;4.20;4.00;;;;;;;20.58;100.00;99821.78;5040090;28;20640;-65
2022/06/16 02:30:19;;;;;;;4.93;4.53;;;;;;;20.62;100.00;99833.69;5047339;28;20213;-65
2022/06/16 02:32:55;;;;;;;4.47;4.20;;;;;;;20.54;100.00;99830.75;5052074;28;20212;-65
2022/06/16 02:35:32;;;;;;;4.17;3.87;;;;;;;20.45;100.00;99828.75;5051502;28;20193;-65
2022/06/16 02:38:13;;;;;;;3.77;3.53;;;;;;;20.36;100.00;99821.47;5049968;28;20592;-65
2022/06/16 02:41:04;;;;;;;3.37;3.17;;;;;;;20.37;100.00;99818.78;5049368;28;20707;-65
2022/06/16 02:43:51;;;;;;;4.77;4.37;;;;;;;20.26;100.00;99825.56;5051058;28;20195;-65
2022/06/16 02:46:33;;;;;;;3.53;3.33;;;;;;;20.12;100.00;99817.81;5032600;28;20204;-65
2022/06/16 02:49:06;;;;;;;3.53;3.33;;;;;;;20.11;100.00;99831.75;5051575;28;20207;-65
2022/06/16 02:51:40;;;;;;;3.63;3.43;;;;;;;20.08;100.00;99826.72;5045703;28;20224;-65
2022/06/16 02:54:20;;;;;;;3.50;3.30;;;;;;;20.10;100.00;99832.66;5040591;28;20256;-65
2022/06/16 02:57:01;;;;;;;3.87;3.57;;;;;;;20.09;100.00;99823.22;5050704;28;20619;-65
2022/06/16 02:59:34;;;;;;;4.13;3.73;;;;;;;19.95;100.00;99811.03;5051374;28;20199;-65
2022/06/16 03:02:06;;;;;;;3.77;3.57;;;;;;;20.07;100.00;99830.25;5049255;28;20671;-65
2022/06/16 03:04:36;;;;;;;3.53;3.33;;;;;;;20.06;100.00;99833.81;5051253;28;20233;-65
2022/06/16 03:07:03;;;;;;;3.20;3.10;;;;;;;20.07;100.00;99836.31;5051521;28;20561;-65
2022/06/16 03:09:30;;;;;;;3.87;3.00;;;;;;;20.09;100.00;99838.81;5041347;28;20225;-65
2022/06/16 03:11:57;;;;;;;4.43;3.53;;;;;;;20.09;100.00;99838.81;5034364;28;20286;-65
2022/06/16 03:14:24;;;;;;;3.60;3.40;;;;;;;20.15;100.00;99844.47;5051127;28;20195;-65
2022/06/16 03:16:51;;;;;;;3.93;3.73;;;;;;;20.07;100.00;99841.50;5051449;28;20715;-65
2022/06/16 03:19:21;;;;;;;5.10;2.80;;;;;;;20.00;100.00;99849.81;5051101;28;20200;-65
2022/06/16 03:21:48;;;;;;;3.37;3.20;;;;;;;20.03;100.00;99849.63;5051690;28;20737;-65
2022/06/16 03:24:14;;;;;;;3.87;3.27;;;;;;;20.10;100.00;99853.50;5051182;28;20557;-65
2022/06/16 03:26:42;;;;;;;3.43;3.13;;;;;;;20.16;100.00;99855.75;5047317;28;20197;-65
2022/06/16 03:29:10;;;;;;;3.33;3.13;;;;;;;20.20;100.00;99857.19;5055482;28;20203;-65
2022/06/16 03:31:36;;;;;;;3.47;3.37;;;;;;;20.23;100.00;99857.00;5041165;28;20204;-65
2022/06/16 03:34:03;;;;;;;3.57;3.27;;;;;;;20.25;100.00;99860.38;5055646;28;20617;-65
2022/06/16 03:36:32;;;;;;;3.37;3.07;;;;;;;20.15;100.00;99849.69;5043275;28;20259;-65
2022/06/16 03:39:00;;;;;;;3.20;3.00;;;;;;;20.16;100.00;99850.53;5039689;28;20199;-65
2022/06/16 03:41:27;;;;;;;3.40;3.20;;;;;;;20.12;100.00;99857.69;5047105;28;20261;-65
2022/06/16 03:43:54;;;;;;;3.53;3.07;;;;;;;20.07;100.00;99848.47;5046387;28;20201;-65
2022/06/16 03:46:20;;;;;;;3.10;2.90;;;;;;;20.08;100.00;99848.41;5050530;28;20226;-65
2022/06/16 03:48:48;;;;;;;2.90;2.80;;;;;;;19.96;100.00;99849.16;5050728;28;20210;-65
2022/06/16 03:51:15;;;;;;;3.90;3.60;;;;;;;19.93;100.00;99844.94;5054333;28;20203;-65
2022/06/16 03:53:44;;;;;;;2.93;2.83;;;;;;;19.79;100.00;99847.59;5052538;28;20603;-65
2022/06/16 03:56:11;;;;;;;3.27;3.17;;;;;;;19.90;100.00;99855.56;5046869;28;20206;-65
2022/06/16 03:58:39;;;;;;;4.13;3.80;;;;;;;19.79;100.00;99842.38;5045800;28;20201;-65
2022/06/16 04:01:06;;;;;;;3.80;3.50;;;;;;;19.74;100.00;99844.41;5042368;28;20206;-65
2022/06/16 04:06:19;;;;;;;3.83;3.60;;;;;;;19.79;100.00;99854.53;5054044;28;20237;-63
2022/06/16 04:08:47;;;;;;;3.27;2.97;;;;;;;19.84;100.00;99855.94;5050470;28;20195;-63
2022/06/16 04:11:30;;;;;;;6.23;3.90;;;;;;;19.83;100.00;99854.28;5042519;28;20205;-63
2022/06/16 04:14:00;;;;;;;3.80;3.50;;;;;;;19.80;100.00;99858.81;5039818;28;20653;-63
2022/06/16 04:16:28;;;;;;;3.67;3.47;;;;;;;19.83;100.00;99864.69;5048793;28;20230;-63
2022/06/16 04:18:55;;;;;;;4.30;3.83;;;;;;;19.79;100.00;99865.78;5054041;28;20204;-63
2022/06/16 04:21:22;;;;;;;4.60;4.30;;;;;;;19.78;100.00;99866.72;5054115;28;20202;-62
2022/06/16 04:23:50;;;;;;;4.40;3.83;;;;;;;19.84;100.00;99863.72;5053839;28;20198;-63
2022/06/16 04:26:17;;;;;;;4.37;4.07;;;;;;;19.77;100.00;99867.63;5049292;28;20209;-63
2022/06/16 04:28:44;;;;;;;4.53;4.00;;;;;;;19.78;100.00;99864.09;5039604;28;20225;-63
2022/06/16 04:31:11;;;;;;;3.77;3.57;;;;;;;19.81;100.00;99871.72;5053979;28;20197;-63
2022/06/16 04:33:38;;;;;;;5.90;3.80;;;;;;;19.78;100.00;99871.06;5054030;28;20674;-64
2022/06/16 04:36:06;;;;;;;5.43;5.07;;;;;;;19.77;100.00;99872.84;5053432;28;20207;-63
2022/06/16 04:38:33;;;;;;;6.00;4.93;;;;;;;19.80;100.00;99870.06;5046816;28;20219;-63
2022/06/16 04:41:02;;;;;;;5.90;5.50;;;;;;;19.84;100.00;99874.16;5051862;28;20211;-63
2022/06/16 04:43:29;;;;;;;7.00;5.97;;;;;;;19.82;100.00;99868.22;5053752;28;20605;-63
2022/06/16 04:45:57;;;;;;;4.83;4.47;;;;;;;19.88;100.00;99865.22;5048064;28;20310;-63
2022/06/16 04:48:24;;;;;;;7.60;7.10;;;;;;;19.86;100.00;99869.69;5050252;28;20230;-63
2022/06/16 04:50:51;;;;;;;13.73;12.07;;;;;;;19.84;100.00;99866.34;5053568;28;20670;-63
2022/06/16 04:53:18;;;;;;;9.83;9.13;;;;;;;19.96;100.00;99858.72;5052052;28;20210;-63
2022/06/16 04:55:52;;;;;;;5.10;4.90;;;;;;;19.96;100.00;99863.94;5053425;28;20208;-63
2022/06/16 04:58:21;;;;;;;6.23;5.60;;;;;;;19.97;100.00;99863.00;5033424;28;20199;-63
2022/06/16 05:00:49;;;;;;;5.70;5.20;;;;;;;19.98;100.00;99867.25;5033489;28;20282;-63
2022/06/16 05:03:16;;;;;;;4.17;3.97;;;;;;;20.05;100.00;99868.56;5036047;28;20207;-63
2022/06/16 05:05:43;;;;;;;5.23;3.60;;;;;;;20.06;100.00;99870.25;5052370;28;20631;-63
2022/06/16 05:08:10;;;;;;;3.40;3.10;;;;;;;20.12;100.00;99857.69;5045065;28;20691;-62
2022/06/16 05:10:37;;;;;;;4.00;3.70;;;;;;;20.10;100.00;99866.50;5053358;28;20580;-63
2022/06/16 05:13:04;;;;;;;3.63;3.47;;;;;;;20.13;100.00;99869.75;5049893;28;20697;-63
2022/06/16 05:15:32;;;;;;;4.20;3.23;;;;;;;20.23;100.00;99867.41;5033308;28;20224;-63
2022/06/16 05:17:59;;;;;;;3.63;3.43;;;;;;;20.27;100.00;99869.78;5035942;28;20211;-62
2022/06/16 05:20:26;;;;;;;4.50;4.10;;;;;;;20.32;100.00;99864.28;5032814;28;20200;-63
2022/06/16 05:22:53;;;;;;;3.20;2.90;;;;;;;20.37;100.00;99862.22;5039895;28;20588;-63
2022/06/16 05:25:20;;;;;;;3.93;3.67;;;;;;;20.43;100.00;99869.66;5052762;28;20687;-63
2022/06/16 05:27:47;;;;;;;4.07;3.73;;;;;;;20.42;100.00;99867.97;5052790;28;20204;-62
2022/06/16 05:30:14;;;;;;;3.93;3.73;;;;;;;20.53;100.00;99875.09;5052764;28;20203;-63
2022/06/16 05:32:42;;;;;;;3.50;3.30;;;;;;;20.59;100.00;99867.75;5052759;28;20285;-63
2022/06/16 05:35:10;;;;;;;4.53;4.33;;;;;;;20.54;100.00;99882.00;5038551;28;20205;-63
2022/06/16 05:37:36;;;;;;;9.90;4.47;;;;;;;20.56;100.00;99870.53;5052374;28;20262;-63
2022/06/16 05:40:04;;;;;;;6.23;4.13;;;;;;;20.61;100.00;99878.09;5048904;28;20675;-63
2022/06/16 05:42:32;;;;;;;5.77;4.30;;;;;;;20.59;100.00;99883.38;5052398;28;20691;-63
2022/06/16 05:44:59;;;;;;;4.87;4.47;;;;;;;20.58;100.00;99884.31;5051769;28;20232;-64
2022/06/16 05:47:25;;;;;;;4.20;4.00;;;;;;;20.58;100.00;99873.88;5048030;28;20211;-63
2022/06/16 05:49:54;;;;;;;3.97;3.70;;;;;;;20.70;100.00;99877.50;5050852;28;20588;-62
2022/06/16 05:52:22;;;;;;;4.17;3.93;;;;;;;20.78;100.00;99875.22;5049842;28;20204;-63
2022/06/16 05:54:50;;;;;;;4.67;4.00;;;;;;;20.92;100.00;99868.19;5046810;28;20363;-63
2022/06/16 05:57:17;;;;;;;6.07;4.10;;;;;;;21.07;100.00;99883.75;5052040;28;20584;-63
2022/06/16 05:59:44;;;;;;;3.97;3.77;;;;;;;21.10;100.00;99887.03;5049422;28;20204;-63
2022/06/16 06:02:15;;;;;;;7.77;3.77;;;;;;;21.09;100.00;99864.50;5052221;28;20196;-63
2022/06/16 06:04:42;;;;;;;4.13;3.80;;;;;;;21.34;100.00;99880.19;5051848;28;20203;-63
2022/06/16 06:07:10;;;;;;;3.50;3.23;;;;;;;21.66;100.00;99882.41;5045596;28;20200;-63
2022/06/16 06:18:09;;;;;;;6.37;5.77;;;;;;;22.69;100.00;99891.66;5049286;28;20254;-63
2022/06/16 06:20:36;;;;;;;5.53;5.00;;;;;;;22.79;100.00;99895.28;5041833;28;20207;-63
2022/06/16 06:23:04;;;;;;;6.33;5.97;;;;;;;22.87;100.00;99894.75;5037279;28;20211;-64
2022/06/16 06:25:32;;;;;;;6.67;6.07;;;;;;;22.88;100.00;99892.00;5051475;28;20227;-63
2022/06/16 06:27:58;;;;;;;6.80;6.37;;;;;;;22.91;100.00;99899.63;5051726;28;20197;-63
2022/06/16 06:30:29;;;;;;;6.57;6.10;;;;;;;22.90;100.00;99897.97;5051473;28;20201;-63
2022/06/16 06:32:56;;;;;;;7.47;6.77;;;;;;;22.80;100.00;99904.81;5051685;28;20288;-63
2022/06/16 06:35:23;;;;;;;7.03;6.63;;;;;;;22.91;100.00;99899.63;5051610;28;20199;-63
2022/06/16 06:37:51;;;;;;;6.60;6.00;;;;;;;22.90;100.00;99897.97;5051129;28;20240;-64
2022/06/16 06:40:23;;;;;;;7.20;6.67;;;;;;;23.04;100.00;99901.34;5048749;28;20579;-63
2022/06/16 06:42:50;;;;;;;7.67;7.00;;;;;;;23.11;100.00;99894.72;5050265;28;20592;-62
2022/06/16 06:45:17;;;;;;;8.10;7.27;;;;;;;23.25;100.00;99897.16;5049348;28;20225;-63
2022/06/16 06:47:44;;;;;;;7.83;7.13;;;;;;;23.31;100.00;99888.84;5048963;28;20204;-63
2022/06/16 06:50:19;;;;;;;7.27;6.63;;;;;;;23.39;100.00;99894.34;5051605;28;20208;-63
2022/06/16 06:52:45;;;;;;;13.07;7.47;;;;;;;23.49;100.00;99890.09;5045626;28;20204;-63
2022/06/16 06:55:12;;;;;;;7.27;6.57;;;;;;;23.56;99.52;99893.91;5051293;28;20207;-64
2022/06/16 06:57:41;;;;;;;7.60;7.00;;;;;;;23.65;100.00;99887.97;5051351;28;20193;-63
2022/06/16 07:00:09;;;;;;;8.30;6.90;;;;;;;23.84;98.84;99890.03;5051144;28;20205;-63
2022/06/16 07:02:36;;;;;;;8.63;7.60;;;;;;;24.02;98.32;99897.31;5050844;28;20203;-63
2022/06/16 07:05:03;;;;;;;9.13;7.37;;;;;;;24.11;97.18;99900.97;5039920;28;20211;-64
2022/06/16 07:07:31;;;;;;;8.53;7.93;;;;;;;24.18;94.98;99893.50;5050750;28;20197;-64
2022/06/16 07:09:57;;;;;;;9.13;8.33;;;;;;;24.34;94.35;99893.97;5050681;28;20596;-63
2022/06/16 07:12:24;;;;;;;9.77;8.83;;;;;;;24.50;91.83;99891.81;5051121;28;20192;-65
2022/06/16 07:14:53;;;;;;;10.00;9.10;;;;;;;24.53;92.25;99892.38;5044124;28;20207;-63
2022/06/16 07:17:22;;;;;;;11.17;10.13;;;;;;;24.50;93.09;99894.41;5041848;28;20550;-63
2022/06/16 07:19:49;;;;;;;9.70;8.80;;;;;;;24.63;92.53;99889.88;5050893;28;20271;-64
2022/06/16 07:22:16;;;;;;;10.57;9.67;;;;;;;24.73;90.32;99884.72;5051332;28;20200;-63
2022/06/16 07:24:43;;;;;;;14.37;9.10;;;;;;;24.94;91.80;99878.56;5050966;28;20209;-63
2022/06/16 07:27:10;;;;;;;9.83;8.80;;;;;;;25.07;89.41;99889.72;5047398;28;20217;-64
2022/06/16 07:29:38;;;;;;;10.53;9.50;;;;;;;24.92;89.61;99891.00;5040614;28;20208;-64
2022/06/16 07:32:07;;;;;;;9.53;8.73;;;;;;;24.96;89.89;99884.56;5042536;28;20673;-64
2022/06/16 07:34:34;;;;;;;11.30;10.13;;;;;;;25.03;89.09;99885.72;5050964;28;20201;-63
2022/06/16 07:37:01;;;;;;;12.37;11.17;;;;;;;25.19;90.32;99881.81;5042285;28;20221;-64
2022/06/16 07:39:28;;;;;;;12.63;11.40;;;;;;;25.25;90.79;99879.53;5041247;28;20204;-63
2022/06/16 07:41:55;;;;;;;13.53;12.13;;;;;;;25.31;89.56;99881.63;5050603;28;20209;-64
2022/06/16 07:44:22;;;;;;;14.60;13.20;;;;;;;25.31;88.56;99880.78;5050330;28;20228;-63
2022/06/16 07:46:49;;;;;;;13.87;12.37;;;;;;;25.10;89.22;99886.03;5050854;28;20212;-65
2022/06/16 07:49:22;;;;;;;21.53;11.73;;;;;;;25.18;87.99;99880.16;5045681;28;20668;-65
2022/06/16 07:51:49;;;;;;;15.67;13.97;;;;;;;25.22;91.04;99882.41;5045304;28;20201;-65
2022/06/16 07:54:17;;;;;;;15.93;13.67;;;;;;;25.16;88.32;99871.56;5036852;28;20208;-65
2022/06/16 07:56:45;;;;;;;15.13;13.63;;;;;;;25.29;89.15;99880.09;5045730;28;20201;-65
2022/06/16 07:59:12;;;;;;;20.93;14.77;;;;;;;25.25;90.26;99886.56;5050872;28;20208;-65
2022/06/16 08:01:39;;;;;;;18.33;14.47;;;;;;;25.26;90.99;99888.22;5039867;28;20198;-65
2022/06/16 08:04:06;;;;;;;15.33;13.83;;;;;;;25.15;89.19;99891.72;5045437;28;20211;-65
2022/06/16 08:06:36;;;;;;;14.13;12.73;;;;;;;25.22;90.54;99892.06;5043835;28;20209;-65
2022/06/16 08:09:05;;;;;;;14.77;13.13;;;;;;;25.22;90.80;99886.81;5036645;28;20196;-65
2022/06/16 08:14:17;;;;;;;14.83;13.27;;;;;;;25.28;89.92;99881.06;5044603;28;20946;-66
2022/06/16 08:16:44;;;;;;;16.30;14.20;;;;;;;25.43;91.85;99892.88;5038068;28;20208;-65
2022/06/16 08:19:11;;;;;;;16.93;14.33;;;;;;;25.56;90.19;99896.19;5051748;28;20201;-65
2022/06/16 08:21:39;;;;;;;14.43;13.13;;;;;;;25.64;88.43;99891.13;5049075;28;20203;-65
2022/06/16 08:24:07;;;;;;;16.57;14.83;;;;;;;25.76;88.75;99890.09;5046272;28;20205;-65
2022/06/16 08:26:35;;;;;;;14.77;13.23;;;;;;;25.71;88.45;99880.94;5049185;28;20208;-65
2022/06/16 08:29:03;;;;;;;14.33;12.83;;;;;;;25.81;86.06;99895.78;5043298;28;20660;-65
2022/06/16 08:31:30;;;;;;;15.80;14.33;;;;;;;25.90;88.13;99895.00;5043202;28;20205;-65
2022/06/16 08:33:56;;;;;;;14.63;13.10;;;;;;;26.00;86.69;99889.78;5038135;28;20278;-65
2022/06/16 08:36:24;;;;;;;15.67;13.60;;;;;;;26.05;89.13;99877.06;5052264;28;20225;-65
2022/06/16 08:38:52;;;;;;;14.57;12.93;;;;;;;26.56;88.64;99887.47;5050296;28;20200;-65
2022/06/16 08:41:25;;;;;;;15.83;14.23;;;;;;;26.92;84.74;99889.50;5051596;28;20695;-66
2022/06/16 08:44:00;;;;;;;14.73;13.33;;;;;;;26.93;83.33;99871.91;5053805;28;20205;-66
2022/06/16 08:46:32;;;;;;;14.87;13.33;;;;;;;26.83;81.31;99878.97;5053731;28;20219;-65
2022/06/16 08:49:04;;;;;;;17.63;12.63;;;;;;;26.84;79.85;99878.84;5053898;28;20193;-65
2022/06/16 08:51:42;;;;;;;13.77;12.57;;;;;;;27.10;82.29;99879.13;5053806;28;20199;-65
2022/06/16 08:54:27;;;;;;;14.30;12.97;;;;;;;27.24;77.69;99883.13;5053786;28;20212;-65
2022/06/16 08:57:01;;;;;;;13.43;12.07;;;;;;;27.33;79.65;99871.75;5049956;28;20199;-65
2022/06/16 08:59:36;;;;;;;13.57;11.93;;;;;;;27.42;78.51;99855.09;5053678;28;20212;-65
2022/06/16 09:02:07;;;;;;;13.27;12.03;;;;;;;27.72;78.15;99878.63;5053348;28;20196;-65
2022/06/16 09:04:39;;;;;;;14.03;12.73;;;;;;;27.82;76.69;99876.75;5039225;28;20197;-66
2022/06/16 09:07:15;;;;;;;15.13;13.70;;;;;;;27.96;76.49;99863.13;5039796;28;20437;-66
2022/06/16 09:13:01;;;;;;;14.80;13.50;;;;;;;27.58;77.51;99871.16;5052474;28;20203;-65
2022/06/16 09:15:34;;;;;;;14.93;13.50;;;;;;;27.31;78.16;99857.88;5053475;28;20201;-65
2022/06/16 09:18:17;;;;;;;13.93;12.60;;;;;;;27.28;77.78;99863.44;5048483;28;20217;-65
2022/06/16 09:20:50;;;;;;;16.33;14.40;;;;;;;27.33;77.18;99855.94;5052537;28;20203;-65
2022/06/16 09:23:48;;;;;;;14.73;12.77;;;;;;;27.31;79.78;99852.59;5050757;28;20204;-68
2022/06/16 09:26:21;;;;;;;12.87;11.77;;;;;;;27.08;77.28;99857.34;5052858;28;20216;-68
2022/06/16 09:28:55;;;;;;;13.47;12.07;;;;;;;27.19;77.97;99843.22;5044667;28;20670;-68
2022/06/16 09:31:31;;;;;;;13.37;12.10;;;;;;;27.44;78.69;99853.16;5052992;28;20196;-68
2022/06/16 09:34:05;;;;;;;14.23;12.87;;;;;;;27.55;76.61;99858.28;5040986;28;20652;-68
2022/06/16 09:36:36;;;;;;;14.00;11.77;;;;;;;27.64;78.71;99849.50;5048969;28;20220;-68
2022/06/16 09:39:10;;;;;;;13.07;11.97;;;;;;;27.91;78.62;99852.19;5051823;28;20676;-68
2022/06/16 09:44:34;;;;;;;14.10;12.47;;;;;;;28.33;74.76;99846.44;5052696;28;20278;-68
2022/06/16 09:47:05;;;;;;;13.33;11.63;;;;;;;28.46;71.57;99844.28;5052491;28;20640;-69
2022/06/16 09:49:39;;;;;;;11.27;10.27;;;;;;;27.88;72.53;99831.41;5036514;28;20748;-68
2022/06/16 09:52:13;;;;;;;12.23;11.03;;;;;;;28.15;72.62;99841.97;5047815;28;20201;-69
2022/06/16 09:54:44;;;;;;;12.33;11.27;;;;;;;27.96;71.54;99838.56;5052284;28;20580;-68
2022/06/16 09:57:16;;;;;;;11.40;10.37;;;;;;;27.93;72.24;99813.34;5052353;28;20200;-68
2022/06/16 09:59:48;;;;;;;12.80;11.47;;;;;;;28.31;72.76;99833.41;5035669;28;20193;-68
2022/06/16 10:02:19;;;;;;;12.00;11.03;;;;;;;28.54;76.58;99825.88;5039281;28;20202;-68
2022/06/16 10:04:49;;;;;;;11.60;10.60;;;;;;;28.55;73.69;99817.84;5032184;28;20209;-68
2022/06/16 10:07:24;;;;;;;12.93;11.83;;;;;;;28.44;72.82;99833.03;5036945;28;20216;-68
2022/06/16 10:09:58;;;;;;;10.23;9.53;;;;;;;27.86;72.27;99833.34;5034224;28;20212;-68
2022/06/16 10:12:33;;;;;;;11.40;10.47;;;;;;;28.03;71.83;99829.94;5032350;28;20193;-68
2022/06/16 10:15:05;;;;;;;10.50;9.70;;;;;;;28.23;72.00;99830.69;5031896;28;20201;-68
2022/06/16 10:17:34;;;;;;;10.03;9.43;;;;;;;28.27;71.63;99820.69;5038628;28;20601;-68
2022/06/16 10:20:01;;;;;;;9.90;9.20;;;;;;;28.49;68.43;99822.88;5051657;28;20197;-68
2022/06/16 10:22:31;;;;;;;11.50;10.57;;;;;;;28.65;72.16;99804.56;5046448;28;20208;-68
2022/06/16 10:25:05;;;;;;;9.77;8.77;;;;;;;28.98;72.00;99809.13;5042094;28;20216;-68
2022/06/16 10:27:38;;;;;;;8.88;8.02;;;;;;;29.10;66.65;99813.22;5046104;28;20213;-68
2022/06/16 10:30:08;;;;;;;9.60;8.83;;;;;;;28.69;67.57;99811.25;5049479;28;20201;-68
2022/06/16 10:32:41;;;;;;;8.67;7.87;;;;;;;28.74;67.29;99801.03;5031670;28;20201;-68
2022/06/16 10:35:15;;;;;;;9.27;8.57;;;;;;;28.56;67.63;99805.47;5049792;28;20209;-67
2022/06/16 10:37:43;;;;;;;8.47;7.87;;;;;;;28.39;66.17;99798.38;5046667;28;20228;-68
2022/06/16 10:40:15;;;;;;;9.47;8.70;;;;;;;28.55;69.01;99798.53;5048196;28;20209;-68
2022/06/16 10:42:46;;;;;;;8.10;7.60;;;;;;;28.61;66.60;99797.94;5031645;28;20201;-68
2022/06/16 10:45:17;;;;;;;8.90;8.30;;;;;;;28.52;66.29;99789.13;5048208;28;20204;-68
2022/06/16 10:47:51;;;;;;;9.47;8.77;;;;;;;28.62;68.54;99783.75;5051333;28;20311;-68
2022/06/16 10:50:23;;;;;;;9.20;8.40;;;;;;;28.62;67.74;99783.75;5051195;28;20671;-67
2022/06/16 10:52:55;;;;;;;8.53;8.13;;;;;;;28.63;69.04;99785.41;5051376;28;20208;-68
2022/06/16 10:55:25;;;;;;;7.40;6.60;;;;;;;28.67;64.32;99789.44;5051183;28;20204;-68
2022/06/16 10:58:01;;;;;;;6.50;6.10;;;;;;;28.62;63.03;99789.88;5051424;28;20254;-68
2022/06/16 11:00:32;;;;;;;5.68;5.47;;;;;;;28.64;62.99;99782.63;5046493;28;20193;-67
2022/06/16 11:03:15;;;;;;;5.73;5.43;;;;;;;28.79;63.66;99763.66;5051189;28;20201;-68
2022/06/16 11:05:52;;;;;;;5.50;5.10;;;;;;;29.00;63.66;99772.88;5051279;28;20254;-68
2022/06/16 11:08:20;;;;;;;5.60;5.30;;;;;;;29.10;65.91;99773.59;5049365;28;20216;-66
2022/06/16 11:10:53;;;;;;;5.33;5.10;;;;;;;29.15;62.24;99766.03;5039701;28;20201;-66
2022/06/16 11:13:28;;;;;;;5.43;5.13;;;;;;;29.01;60.69;99748.16;5045227;28;20204;-66
2022/06/16 11:15:55;;;;;;;4.87;4.67;;;;;;;29.12;61.47;99766.34;5046642;28;20576;-65
2022/06/16 11:18:25;;;;;;;5.47;5.13;;;;;;;28.98;62.25;99743.16;5051164;28;20197;-66
2022/06/16 11:20:55;;;;;;;5.47;5.13;;;;;;;29.28;66.07;99756.88;5051436;28;20200;-65
2022/06/16 11:23:29;;;;;;;5.28;5.05;;;;;;;29.50;62.72;99753.72;5043603;28;20196;-65
2022/06/16 11:26:00;;;;;;;5.57;5.27;;;;;;;29.48;62.44;99751.22;5046202;28;20575;-65
2022/06/16 11:28:29;;;;;;;4.75;4.55;;;;;;;29.18;62.26;99739.31;5048462;28;20270;-65
2022/06/16 11:30:59;;;;;;;4.97;4.78;;;;;;;29.17;61.53;99747.41;5039239;28;20581;-65
2022/06/16 11:36:26;;;;;;;4.77;4.57;;;;;;;29.30;60.67;99753.13;5050178;28;20282;-66
2022/06/16 11:39:00;;;;;;;5.13;4.93;;;;;;;29.37;62.58;99740.13;5047752;28;20204;-65
2022/06/16 11:41:28;;;;;;;4.90;4.70;;;;;;;29.47;63.98;99740.81;5050892;28;20192;-65
2022/06/16 11:44:20;;;;;;;5.18;4.97;;;;;;;29.26;59.36;99741.22;5045621;28;20201;-65
2022/06/16 11:46:53;;;;;;;5.10;4.90;;;;;;;29.16;59.49;99740.47;5046385;28;20668;-65
2022/06/16 11:49:36;;;;;;;5.20;4.78;;;;;;;29.15;62.17;99734.34;5053638;28;20232;-65
2022/06/16 11:52:14;;;;;;;5.70;5.40;;;;;;;29.09;60.85;99740.25;5048837;28;20205;-65
2022/06/16 11:54:58;;;;;;;5.30;4.87;;;;;;;29.05;61.08;99736.28;5037711;28;20208;-65
2022/06/16 11:57:30;;;;;;;5.27;4.97;;;;;;;29.13;58.16;99744.25;5048454;28;20284;-65
2022/06/16 12:00:12;;;;;;;5.27;5.07;;;;;;;29.23;56.04;99740.66;5034917;28;20201;-65
2022/06/16 12:03:05;;;;;;;4.97;4.70;;;;;;;29.34;58.89;99732.53;5053749;28;20204;-65
2022/06/16 12:05:39;;;;;;;5.10;4.80;;;;;;;29.54;58.77;99723.34;5040715;28;20689;-65
2022/06/16 12:08:26;;;;;;;5.25;5.05;;;;;;;29.68;58.40;99730.66;5045953;28;20219;-65